sensor_id;sensor_type;location;lat;lon;timestamp;temperature;humidity
21261;DHT22;10788;47.930;9.766;2022-08-03T00:01:32;20.00;99.90
21261;DHT22;10788;47.930;9.766;2022-08-03T00:03:58;20.00;99.90
21261;DHT22;10788;47.930;9.766;2022-08-03T00:06:24;19.90;99.90
21261;DHT22;10788;47.930;9.766;2022-08-03T00:08:49;19.90;99.90
21261;DHT22;10788;47.930;9.766;2022-08-03T00:11:15;19.80;99.90
21261;DHT22;10788;47.930;9.766;2022-08-03T00:13:41;19.80;99.90
21261;DHT22;10788;47.930;9.766;2022-08-03T00:16:07;19.70;99.90
21261;DHT22;10788;47.930;9.766;2022-08-03T00:18:33;19.70;99.90
21261;DHT22;10788;47.930;9.766;2022-08-03T00:20:58;19.70;99.90
21261;DHT22;10788;47.930;9.766;2022-08-03T00:23:24;19.70;99.90
21261;DHT22;10788;47.930;9.766;2022-08-03T00:25:50;19.70;99.90
21261;DHT22;10788;47.930;9.766;2022-08-03T00:28:16;19.60;99.90
21261;DHT22;10788;47.930;9.766;2022-08-03T00:30:41;19.60;99.90
21261;DHT22;10788;47.930;9.766;2022-08-03T00:33:07;19.50;99.90
21261;DHT22;10788;47.930;9.766;2022-08-03T00:35:34;19.50;99.90
21261;DHT22;10788;47.930;9.766;2022-08-03T00:38:00;19.30;99.90
21261;DHT22;10788;47.930;9.766;2022-08-03T00:40:26;19.30;99.90
21261;DHT22;10788;47.930;9.766;2022-08-03T00:42:53;19.30;99.90
21261;DHT22;10788;47.930;9.766;2022-08-03T00:45:30;19.10;99.90
21261;DHT22;10788;47.930;9.766;2022-08-03T00:47:56;19.10;99.90
21261;DHT22;10788;47.930;9.766;2022-08-03T00:50:24;19.00;99.90
21261;DHT22;10788;47.930;9.766;2022-08-03T00:52:51;19.00;99.90
21261;DHT22;10788;47.930;9.766;2022-08-03T00:55:18;19.00;99.90
21261;DHT22;10788;47.930;9.766;2022-08-03T00:57:44;19.00;99.90
21261;DHT22;10788;47.930;9.766;2022-08-03T01:00:12;19.00;99.90
21261;DHT22;10788;47.930;9.766;2022-08-03T01:02:39;18.90;99.90
21261;DHT22;10788;47.930;9.766;2022-08-03T01:05:05;18.90;99.90
21261;DHT22;10788;47.930;9.766;2022-08-03T01:10:32;18.80;99.90
21261;DHT22;10788;47.930;9.766;2022-08-03T01:18:17;18.70;99.90
21261;DHT22;10788;47.930;9.766;2022-08-03T01:20:48;18.70;99.90
21261;DHT22;10788;47.930;9.766;2022-08-03T01:31:31;18.60;99.90
21261;DHT22;10788;47.930;9.766;2022-08-03T01:34:02;18.60;99.90
21261;DHT22;10788;47.930;9.766;2022-08-03T01:36:35;18.60;99.90
21261;DHT22;10788;47.930;9.766;2022-08-03T01:39:04;18.60;99.90
21261;DHT22;10788;47.930;9.766;2022-08-03T01:41:39;18.50;99.90
21261;DHT22;10788;47.930;9.766;2022-08-03T01:44:08;18.30;99.90
21261;DHT22;10788;47.930;9.766;2022-08-03T01:46:36;18.20;99.90
21261;DHT22;10788;47.930;9.766;2022-08-03T01:49:06;18.20;99.90
21261;DHT22;10788;47.930;9.766;2022-08-03T01:51:38;18.20;99.90
21261;DHT22;10788;47.930;9.766;2022-08-03T01:54:08;18.20;99.90
21261;DHT22;10788;47.930;9.766;2022-08-03T01:56:35;18.20;99.90
21261;DHT22;10788;47.930;9.766;2022-08-03T01:59:03;18.20;99.90
21261;DHT22;10788;47.930;9.766;2022-08-03T02:01:30;18.20;99.90
21261;DHT22;10788;47.930;9.766;2022-08-03T02:03:57;18.20;99.90
21261;DHT22;10788;47.930;9.766;2022-08-03T02:06:25;18.20;99.90
21261;DHT22;10788;47.930;9.766;2022-08-03T02:08:52;18.20;99.90
21261;DHT22;10788;47.930;9.766;2022-08-03T02:11:19;18.10;99.90
21261;DHT22;10788;47.930;9.766;2022-08-03T02:13:45;18.10;99.90
21261;DHT22;10788;47.930;9.766;2022-08-03T02:16:12;18.10;99.90
21261;DHT22;10788;47.930;9.766;2022-08-03T02:18:39;18.10;99.90
21261;DHT22;10788;47.930;9.766;2022-08-03T02:21:08;18.00;99.90
21261;DHT22;10788;47.930;9.766;2022-08-03T02:23:36;18.00;99.90
21261;DHT22;10788;47.930;9.766;2022-08-03T02:26:04;18.00;99.90
21261;DHT22;10788;47.930;9.766;2022-08-03T02:28:36;18.00;99.90
21261;DHT22;10788;47.930;9.766;2022-08-03T02:31:06;17.90;99.90
21261;DHT22;10788;47.930;9.766;2022-08-03T02:33:36;17.90;99.90
21261;DHT22;10788;47.930;9.766;2022-08-03T02:36:04;17.90;99.90
21261;DHT22;10788;47.930;9.766;2022-08-03T02:38:33;17.90;99.90
21261;DHT22;10788;47.930;9.766;2022-08-03T02:41:04;17.90;99.90
21261;DHT22;10788;47.930;9.766;2022-08-03T02:43:34;17.80;99.90
21261;DHT22;10788;47.930;9.766;2022-08-03T02:46:00;17.70;99.90
21261;DHT22;10788;47.930;9.766;2022-08-03T02:48:31;17.70;99.90
21261;DHT22;10788;47.930;9.766;2022-08-03T02:50:58;17.70;99.90
21261;DHT22;10788;47.930;9.766;2022-08-03T02:53:25;17.60;99.90
21261;DHT22;10788;47.930;9.766;2022-08-03T02:55:52;17.60;99.90
21261;DHT22;10788;47.930;9.766;2022-08-03T02:58:20;17.60;99.90
21261;DHT22;10788;47.930;9.766;2022-08-03T03:00:48;17.60;99.90
21261;DHT22;10788;47.930;9.766;2022-08-03T03:03:16;17.60;99.90
21261;DHT22;10788;47.930;9.766;2022-08-03T03:05:42;17.50;99.90
21261;DHT22;10788;47.930;9.766;2022-08-03T03:08:12;17.50;99.90
21261;DHT22;10788;47.930;9.766;2022-08-03T03:10:39;17.50;99.90
21261;DHT22;10788;47.930;9.766;2022-08-03T03:13:06;17.50;99.90
21261;DHT22;10788;47.930;9.766;2022-08-03T03:15:34;17.50;99.90
21261;DHT22;10788;47.930;9.766;2022-08-03T03:18:01;17.40;99.90
21261;DHT22;10788;47.930;9.766;2022-08-03T03:20:28;17.40;99.90
21261;DHT22;10788;47.930;9.766;2022-08-03T03:22:55;17.30;99.90
21261;DHT22;10788;47.930;9.766;2022-08-03T03:25:22;17.30;99.90
21261;DHT22;10788;47.930;9.766;2022-08-03T03:27:49;17.20;99.90
21261;DHT22;10788;47.930;9.766;2022-08-03T03:30:15;17.10;99.90
21261;DHT22;10788;47.930;9.766;2022-08-03T03:32:41;17.10;99.90
21261;DHT22;10788;47.930;9.766;2022-08-03T03:35:08;17.00;99.90
21261;DHT22;10788;47.930;9.766;2022-08-03T03:37:34;17.00;99.90
21261;DHT22;10788;47.930;9.766;2022-08-03T03:39:59;17.00;99.90
21261;DHT22;10788;47.930;9.766;2022-08-03T03:42:25;17.00;99.90
21261;DHT22;10788;47.930;9.766;2022-08-03T03:44:51;17.00;99.90
21261;DHT22;10788;47.930;9.766;2022-08-03T03:47:17;17.00;99.90
21261;DHT22;10788;47.930;9.766;2022-08-03T03:49:43;17.00;99.90
21261;DHT22;10788;47.930;9.766;2022-08-03T03:52:09;17.00;99.90
21261;DHT22;10788;47.930;9.766;2022-08-03T03:54:42;17.00;99.90
21261;DHT22;10788;47.930;9.766;2022-08-03T03:57:09;17.00;99.90
21261;DHT22;10788;47.930;9.766;2022-08-03T03:59:42;16.90;99.90
21261;DHT22;10788;47.930;9.766;2022-08-03T04:02:08;16.90;99.90
21261;DHT22;10788;47.930;9.766;2022-08-03T04:04:35;16.80;99.90
21261;DHT22;10788;47.930;9.766;2022-08-03T04:07:20;16.90;99.90
21261;DHT22;10788;47.930;9.766;2022-08-03T04:10:12;16.90;99.90
21261;DHT22;10788;47.930;9.766;2022-08-03T04:12:58;16.90;99.90
21261;DHT22;10788;47.930;9.766;2022-08-03T04:15:26;16.80;99.90
21261;DHT22;10788;47.930;9.766;2022-08-03T04:17:55;16.70;99.90
21261;DHT22;10788;47.930;9.766;2022-08-03T04:20:23;16.60;99.90
21261;DHT22;10788;47.930;9.766;2022-08-03T04:22:52;16.50;99.90
21261;DHT22;10788;47.930;9.766;2022-08-03T04:25:20;16.50;99.90
21261;DHT22;10788;47.930;9.766;2022-08-03T04:27:48;16.40;99.90
21261;DHT22;10788;47.930;9.766;2022-08-03T04:30:17;16.40;99.90
21261;DHT22;10788;47.930;9.766;2022-08-03T04:32:44;16.40;99.90
21261;DHT22;10788;47.930;9.766;2022-08-03T04:35:16;16.40;99.90
21261;DHT22;10788;47.930;9.766;2022-08-03T04:37:44;16.40;99.90
21261;DHT22;10788;47.930;9.766;2022-08-03T04:40:28;16.50;99.90
21261;DHT22;10788;47.930;9.766;2022-08-03T04:42:55;16.50;99.90
21261;DHT22;10788;47.930;9.766;2022-08-03T04:45:21;16.60;99.90
21261;DHT22;10788;47.930;9.766;2022-08-03T04:47:48;16.60;99.90
21261;DHT22;10788;47.930;9.766;2022-08-03T04:50:14;16.60;99.90
21261;DHT22;10788;47.930;9.766;2022-08-03T04:52:41;16.60;99.90
21261;DHT22;10788;47.930;9.766;2022-08-03T04:55:07;16.70;99.90
21261;DHT22;10788;47.930;9.766;2022-08-03T04:57:33;16.70;99.90
21261;DHT22;10788;47.930;9.766;2022-08-03T04:59:58;16.70;99.90
21261;DHT22;10788;47.930;9.766;2022-08-03T05:02:24;16.80;99.90
21261;DHT22;10788;47.930;9.766;2022-08-03T05:04:50;16.80;99.90
21261;DHT22;10788;47.930;9.766;2022-08-03T05:07:16;16.90;99.90
21261;DHT22;10788;47.930;9.766;2022-08-03T05:09:43;16.90;99.90
21261;DHT22;10788;47.930;9.766;2022-08-03T05:12:09;17.00;99.90
21261;DHT22;10788;47.930;9.766;2022-08-03T05:14:36;17.10;99.90
21261;DHT22;10788;47.930;9.766;2022-08-03T05:17:07;17.10;99.90
21261;DHT22;10788;47.930;9.766;2022-08-03T05:19:34;17.20;99.90
21261;DHT22;10788;47.930;9.766;2022-08-03T05:21:59;17.20;99.90
21261;DHT22;10788;47.930;9.766;2022-08-03T05:24:26;17.30;99.90
21261;DHT22;10788;47.930;9.766;2022-08-03T05:26:51;17.30;99.90
21261;DHT22;10788;47.930;9.766;2022-08-03T05:29:17;17.40;99.90
21261;DHT22;10788;47.930;9.766;2022-08-03T05:31:43;17.50;99.90
21261;DHT22;10788;47.930;9.766;2022-08-03T05:34:08;17.50;99.90
21261;DHT22;10788;47.930;9.766;2022-08-03T05:36:34;17.60;99.90
21261;DHT22;10788;47.930;9.766;2022-08-03T05:39:00;17.60;99.90
21261;DHT22;10788;47.930;9.766;2022-08-03T05:41:25;17.70;99.90
21261;DHT22;10788;47.930;9.766;2022-08-03T05:43:52;17.80;99.90
21261;DHT22;10788;47.930;9.766;2022-08-03T05:46:18;17.90;99.90
21261;DHT22;10788;47.930;9.766;2022-08-03T05:48:43;18.00;99.90
21261;DHT22;10788;47.930;9.766;2022-08-03T05:51:09;18.10;99.90
21261;DHT22;10788;47.930;9.766;2022-08-03T05:53:41;18.20;99.90
21261;DHT22;10788;47.930;9.766;2022-08-03T05:56:07;18.20;99.90
21261;DHT22;10788;47.930;9.766;2022-08-03T05:58:33;18.30;99.90
21261;DHT22;10788;47.930;9.766;2022-08-03T06:00:58;18.40;99.90
21261;DHT22;10788;47.930;9.766;2022-08-03T06:03:24;18.50;99.90
21261;DHT22;10788;47.930;9.766;2022-08-03T06:05:50;18.60;99.90
21261;DHT22;10788;47.930;9.766;2022-08-03T06:08:15;18.70;99.90
21261;DHT22;10788;47.930;9.766;2022-08-03T06:10:41;18.90;99.90
21261;DHT22;10788;47.930;9.766;2022-08-03T06:13:07;19.10;99.90
21261;DHT22;10788;47.930;9.766;2022-08-03T06:15:32;19.20;99.90
21261;DHT22;10788;47.930;9.766;2022-08-03T06:18:00;19.30;99.90
21261;DHT22;10788;47.930;9.766;2022-08-03T06:20:25;19.50;99.90
21261;DHT22;10788;47.930;9.766;2022-08-03T06:22:51;19.60;99.90
21261;DHT22;10788;47.930;9.766;2022-08-03T06:25:17;19.70;99.90
21261;DHT22;10788;47.930;9.766;2022-08-03T06:27:44;19.90;99.90
21261;DHT22;10788;47.930;9.766;2022-08-03T06:30:11;20.00;99.90
21261;DHT22;10788;47.930;9.766;2022-08-03T06:32:38;20.10;99.90
21261;DHT22;10788;47.930;9.766;2022-08-03T06:35:05;20.20;99.90
21261;DHT22;10788;47.930;9.766;2022-08-03T06:37:40;20.30;99.90
21261;DHT22;10788;47.930;9.766;2022-08-03T06:40:06;20.40;99.90
21261;DHT22;10788;47.930;9.766;2022-08-03T06:42:32;20.60;99.90
21261;DHT22;10788;47.930;9.766;2022-08-03T06:44:57;20.70;99.90
21261;DHT22;10788;47.930;9.766;2022-08-03T06:47:23;20.90;99.90
21261;DHT22;10788;47.930;9.766;2022-08-03T06:49:49;21.10;99.90
21261;DHT22;10788;47.930;9.766;2022-08-03T06:52:14;21.20;99.90
21261;DHT22;10788;47.930;9.766;2022-08-03T06:54:40;21.40;99.90
21261;DHT22;10788;47.930;9.766;2022-08-03T06:57:05;21.60;99.90
21261;DHT22;10788;47.930;9.766;2022-08-03T06:59:32;21.80;99.90
21261;DHT22;10788;47.930;9.766;2022-08-03T07:01:58;22.00;99.90
21261;DHT22;10788;47.930;9.766;2022-08-03T07:04:23;22.20;99.90
21261;DHT22;10788;47.930;9.766;2022-08-03T07:06:49;22.40;99.90
21261;DHT22;10788;47.930;9.766;2022-08-03T07:09:14;22.60;99.90
21261;DHT22;10788;47.930;9.766;2022-08-03T07:11:40;22.80;99.90
21261;DHT22;10788;47.930;9.766;2022-08-03T07:14:06;23.00;99.90
21261;DHT22;10788;47.930;9.766;2022-08-03T07:16:31;23.10;99.90
21261;DHT22;10788;47.930;9.766;2022-08-03T07:18:57;23.20;99.90
21261;DHT22;10788;47.930;9.766;2022-08-03T07:21:23;23.20;99.90
21261;DHT22;10788;47.930;9.766;2022-08-03T07:23:48;23.30;99.90
21261;DHT22;10788;47.930;9.766;2022-08-03T07:26:14;23.40;99.90
21261;DHT22;10788;47.930;9.766;2022-08-03T07:28:40;23.60;99.90
21261;DHT22;10788;47.930;9.766;2022-08-03T07:31:05;23.70;99.90
21261;DHT22;10788;47.930;9.766;2022-08-03T07:33:31;23.90;99.90
21261;DHT22;10788;47.930;9.766;2022-08-03T07:35:56;24.10;99.90
21261;DHT22;10788;47.930;9.766;2022-08-03T07:38:22;24.30;99.90
21261;DHT22;10788;47.930;9.766;2022-08-03T07:40:48;24.50;99.90
21261;DHT22;10788;47.930;9.766;2022-08-03T07:43:13;24.60;99.90
21261;DHT22;10788;47.930;9.766;2022-08-03T07:45:39;24.70;99.90
21261;DHT22;10788;47.930;9.766;2022-08-03T07:48:05;24.90;99.90
21261;DHT22;10788;47.930;9.766;2022-08-03T07:50:30;25.10;99.90
21261;DHT22;10788;47.930;9.766;2022-08-03T07:52:56;25.20;99.90
21261;DHT22;10788;47.930;9.766;2022-08-03T07:55:24;25.30;99.90
21261;DHT22;10788;47.930;9.766;2022-08-03T07:58:07;25.40;99.90
21261;DHT22;10788;47.930;9.766;2022-08-03T08:00:47;25.60;99.90
21261;DHT22;10788;47.930;9.766;2022-08-03T08:03:12;25.80;99.90
21261;DHT22;10788;47.930;9.766;2022-08-03T08:05:38;25.80;99.90
21261;DHT22;10788;47.930;9.766;2022-08-03T08:08:04;26.10;99.90
21261;DHT22;10788;47.930;9.766;2022-08-03T08:10:30;26.20;99.90
21261;DHT22;10788;47.930;9.766;2022-08-03T08:12:57;26.30;99.90
21261;DHT22;10788;47.930;9.766;2022-08-03T08:15:23;26.20;99.90
21261;DHT22;10788;47.930;9.766;2022-08-03T08:17:51;26.40;99.90
21261;DHT22;10788;47.930;9.766;2022-08-03T08:20:29;26.60;99.90
21261;DHT22;10788;47.930;9.766;2022-08-03T08:22:56;26.80;99.90
21261;DHT22;10788;47.930;9.766;2022-08-03T08:25:22;27.00;99.90
21261;DHT22;10788;47.930;9.766;2022-08-03T08:27:49;27.10;99.90
21261;DHT22;10788;47.930;9.766;2022-08-03T08:30:17;27.20;99.90
21261;DHT22;10788;47.930;9.766;2022-08-03T08:32:44;27.40;99.90
21261;DHT22;10788;47.930;9.766;2022-08-03T08:35:10;27.40;99.90
21261;DHT22;10788;47.930;9.766;2022-08-03T08:37:36;27.60;99.90
21261;DHT22;10788;47.930;9.766;2022-08-03T08:40:03;27.90;99.90
21261;DHT22;10788;47.930;9.766;2022-08-03T08:42:33;28.10;99.90
21261;DHT22;10788;47.930;9.766;2022-08-03T08:45:02;28.30;99.90
21261;DHT22;10788;47.930;9.766;2022-08-03T08:47:31;28.50;99.90
21261;DHT22;10788;47.930;9.766;2022-08-03T08:49:58;28.60;99.90
21261;DHT22;10788;47.930;9.766;2022-08-03T08:52:26;28.60;99.90
21261;DHT22;10788;47.930;9.766;2022-08-03T08:55:00;28.80;99.90
21261;DHT22;10788;47.930;9.766;2022-08-03T08:57:33;28.80;99.90
21261;DHT22;10788;47.930;9.766;2022-08-03T09:00:00;28.40;99.90
21261;DHT22;10788;47.930;9.766;2022-08-03T09:02:28;28.60;99.90
21261;DHT22;10788;47.930;9.766;2022-08-03T09:04:55;28.60;99.90
21261;DHT22;10788;47.930;9.766;2022-08-03T09:07:21;28.80;99.90
21261;DHT22;10788;47.930;9.766;2022-08-03T09:09:47;29.00;99.90
21261;DHT22;10788;47.930;9.766;2022-08-03T09:12:13;29.30;99.90
21261;DHT22;10788;47.930;9.766;2022-08-03T09:14:39;29.40;99.90
21261;DHT22;10788;47.930;9.766;2022-08-03T09:17:04;29.50;99.90
21261;DHT22;10788;47.930;9.766;2022-08-03T09:19:32;29.60;99.90
21261;DHT22;10788;47.930;9.766;2022-08-03T09:22:14;29.70;99.90
21261;DHT22;10788;47.930;9.766;2022-08-03T09:25:00;29.80;99.90
21261;DHT22;10788;47.930;9.766;2022-08-03T09:27:26;29.90;99.50
21261;DHT22;10788;47.930;9.766;2022-08-03T09:29:53;30.10;99.20
21261;DHT22;10788;47.930;9.766;2022-08-03T09:32:23;30.20;98.00
21261;DHT22;10788;47.930;9.766;2022-08-03T09:34:51;30.30;97.30
21261;DHT22;10788;47.930;9.766;2022-08-03T09:37:19;30.40;96.30
21261;DHT22;10788;47.930;9.766;2022-08-03T09:39:45;30.40;96.50
21261;DHT22;10788;47.930;9.766;2022-08-03T09:42:16;30.40;95.10
21261;DHT22;10788;47.930;9.766;2022-08-03T09:44:48;30.50;95.30
21261;DHT22;10788;47.930;9.766;2022-08-03T09:47:33;30.80;94.70
21261;DHT22;10788;47.930;9.766;2022-08-03T09:50:03;30.80;94.40
21261;DHT22;10788;47.930;9.766;2022-08-03T09:52:32;30.80;92.50
21261;DHT22;10788;47.930;9.766;2022-08-03T09:54:58;30.80;91.90
21261;DHT22;10788;47.930;9.766;2022-08-03T09:57:26;30.70;91.60
21261;DHT22;10788;47.930;9.766;2022-08-03T09:59:53;30.70;92.60
21261;DHT22;10788;47.930;9.766;2022-08-03T10:02:26;30.80;93.30
21261;DHT22;10788;47.930;9.766;2022-08-03T10:04:52;30.50;92.70
21261;DHT22;10788;47.930;9.766;2022-08-03T10:07:22;30.60;93.10
21261;DHT22;10788;47.930;9.766;2022-08-03T10:09:57;30.80;91.70
21261;DHT22;10788;47.930;9.766;2022-08-03T10:12:24;30.80;90.90
21261;DHT22;10788;47.930;9.766;2022-08-03T10:14:50;31.00;91.30
21261;DHT22;10788;47.930;9.766;2022-08-03T10:17:17;31.30;88.90
21261;DHT22;10788;47.930;9.766;2022-08-03T10:19:43;31.30;90.90
21261;DHT22;10788;47.930;9.766;2022-08-03T10:22:13;31.40;91.10
21261;DHT22;10788;47.930;9.766;2022-08-03T10:25:02;31.70;91.10
21261;DHT22;10788;47.930;9.766;2022-08-03T10:27:37;31.70;90.30
21261;DHT22;10788;47.930;9.766;2022-08-03T10:30:07;31.50;89.70
21261;DHT22;10788;47.930;9.766;2022-08-03T10:32:42;31.50;84.90
21261;DHT22;10788;47.930;9.766;2022-08-03T10:35:11;31.70;87.30
21261;DHT22;10788;47.930;9.766;2022-08-03T10:37:58;31.90;88.70
21261;DHT22;10788;47.930;9.766;2022-08-03T10:40:26;31.90;86.70
21261;DHT22;10788;47.930;9.766;2022-08-03T10:42:55;31.80;89.20
21261;DHT22;10788;47.930;9.766;2022-08-03T10:45:25;31.70;88.90
21261;DHT22;10788;47.930;9.766;2022-08-03T10:47:52;31.90;86.50
21261;DHT22;10788;47.930;9.766;2022-08-03T10:50:20;32.20;86.10
21261;DHT22;10788;47.930;9.766;2022-08-03T10:55:38;32.20;84.60
21261;DHT22;10788;47.930;9.766;2022-08-03T10:58:48;32.10;86.00
21261;DHT22;10788;47.930;9.766;2022-08-03T11:01:15;32.20;86.20
21261;DHT22;10788;47.930;9.766;2022-08-03T11:06:25;31.70;82.70
21261;DHT22;10788;47.930;9.766;2022-08-03T11:09:17;32.00;84.20
21261;DHT22;10788;47.930;9.766;2022-08-03T11:11:45;32.20;85.60
21261;DHT22;10788;47.930;9.766;2022-08-03T11:14:21;32.40;84.60
21261;DHT22;10788;47.930;9.766;2022-08-03T11:16:49;32.60;83.40
21261;DHT22;10788;47.930;9.766;2022-08-03T11:19:19;32.70;83.50
21261;DHT22;10788;47.930;9.766;2022-08-03T11:46:10;32.60;80.90
21261;DHT22;10788;47.930;9.766;2022-08-03T11:48:47;32.70;81.90
21261;DHT22;10788;47.930;9.766;2022-08-03T11:51:20;32.80;79.70
21261;DHT22;10788;47.930;9.766;2022-08-03T11:53:46;32.80;79.20
21261;DHT22;10788;47.930;9.766;2022-08-03T11:56:15;32.80;77.50
21261;DHT22;10788;47.930;9.766;2022-08-03T11:58:48;32.70;77.80
21261;DHT22;10788;47.930;9.766;2022-08-03T12:01:14;32.60;77.30
21261;DHT22;10788;47.930;9.766;2022-08-03T12:03:43;32.50;77.20
21261;DHT22;10788;47.930;9.766;2022-08-03T12:06:14;32.40;76.30
21261;DHT22;10788;47.930;9.766;2022-08-03T12:08:41;32.20;76.20
21261;DHT22;10788;47.930;9.766;2022-08-03T12:11:09;32.50;77.30
21261;DHT22;10788;47.930;9.766;2022-08-03T12:13:40;32.60;76.40
21261;DHT22;10788;47.930;9.766;2022-08-03T12:16:06;32.70;77.20
21261;DHT22;10788;47.930;9.766;2022-08-03T12:18:32;32.60;76.70
21261;DHT22;10788;47.930;9.766;2022-08-03T12:21:06;32.70;77.50
21261;DHT22;10788;47.930;9.766;2022-08-03T12:23:33;32.70;76.40
21261;DHT22;10788;47.930;9.766;2022-08-03T12:26:09;32.60;76.50
21261;DHT22;10788;47.930;9.766;2022-08-03T12:28:35;32.40;77.40
21261;DHT22;10788;47.930;9.766;2022-08-03T12:31:06;32.20;77.00
21261;DHT22;10788;47.930;9.766;2022-08-03T12:33:53;32.30;74.60
21261;DHT22;10788;47.930;9.766;2022-08-03T12:36:18;32.10;75.70
21261;DHT22;10788;47.930;9.766;2022-08-03T12:38:57;32.20;73.90
21261;DHT22;10788;47.930;9.766;2022-08-03T12:41:28;32.20;74.30
21261;DHT22;10788;47.930;9.766;2022-08-03T12:43:54;31.90;74.50
21261;DHT22;10788;47.930;9.766;2022-08-03T12:46:20;31.90;74.50
21261;DHT22;10788;47.930;9.766;2022-08-03T12:51:28;32.00;75.20
21261;DHT22;10788;47.930;9.766;2022-08-03T12:53:56;32.20;75.90
21261;DHT22;10788;47.930;9.766;2022-08-03T12:56:22;32.40;75.70
21261;DHT22;10788;47.930;9.766;2022-08-03T12:58:48;32.40;76.90
21261;DHT22;10788;47.930;9.766;2022-08-03T13:01:15;32.30;75.80
21261;DHT22;10788;47.930;9.766;2022-08-03T13:03:43;32.50;75.50
21261;DHT22;10788;47.930;9.766;2022-08-03T13:06:13;32.60;75.60
21261;DHT22;10788;47.930;9.766;2022-08-03T13:08:39;32.60;74.60
21261;DHT22;10788;47.930;9.766;2022-08-03T13:11:24;32.50;73.70
21261;DHT22;10788;47.930;9.766;2022-08-03T13:13:52;32.40;74.10
21261;DHT22;10788;47.930;9.766;2022-08-03T13:16:18;32.20;75.00
21261;DHT22;10788;47.930;9.766;2022-08-03T13:18:47;32.40;75.60
21261;DHT22;10788;47.930;9.766;2022-08-03T13:21:14;32.10;74.70
21261;DHT22;10788;47.930;9.766;2022-08-03T13:23:40;32.20;73.60
21261;DHT22;10788;47.930;9.766;2022-08-03T13:26:06;32.30;75.30
21261;DHT22;10788;47.930;9.766;2022-08-03T13:28:32;32.40;75.20
21261;DHT22;10788;47.930;9.766;2022-08-03T13:30:58;32.40;74.70
21261;DHT22;10788;47.930;9.766;2022-08-03T13:33:25;32.50;76.50
21261;DHT22;10788;47.930;9.766;2022-08-03T13:35:50;32.50;75.10
21261;DHT22;10788;47.930;9.766;2022-08-03T13:38:16;32.50;74.80
21261;DHT22;10788;47.930;9.766;2022-08-03T13:40:42;32.50;73.20
21261;DHT22;10788;47.930;9.766;2022-08-03T13:43:07;32.10;72.80
21261;DHT22;10788;47.930;9.766;2022-08-03T13:45:33;31.90;73.90
21261;DHT22;10788;47.930;9.766;2022-08-03T13:47:59;32.00;74.60
21261;DHT22;10788;47.930;9.766;2022-08-03T13:50:24;32.00;74.40
21261;DHT22;10788;47.930;9.766;2022-08-03T13:52:50;32.00;73.90
21261;DHT22;10788;47.930;9.766;2022-08-03T13:55:16;32.10;74.90
21261;DHT22;10788;47.930;9.766;2022-08-03T13:57:41;32.20;75.40
21261;DHT22;10788;47.930;9.766;2022-08-03T14:00:07;32.40;74.20
21261;DHT22;10788;47.930;9.766;2022-08-03T14:02:33;32.40;75.30
21261;DHT22;10788;47.930;9.766;2022-08-03T14:04:59;32.50;74.30
21261;DHT22;10788;47.930;9.766;2022-08-03T14:07:24;32.50;75.00
21261;DHT22;10788;47.930;9.766;2022-08-03T14:09:50;32.60;73.70
21261;DHT22;10788;47.930;9.766;2022-08-03T14:12:16;32.50;73.90
21261;DHT22;10788;47.930;9.766;2022-08-03T14:14:41;32.40;75.00
21261;DHT22;10788;47.930;9.766;2022-08-03T14:17:07;32.50;74.90
21261;DHT22;10788;47.930;9.766;2022-08-03T14:19:32;32.60;73.60
21261;DHT22;10788;47.930;9.766;2022-08-03T14:21:58;32.50;74.80
21261;DHT22;10788;47.930;9.766;2022-08-03T14:24:24;32.60;75.20
21261;DHT22;10788;47.930;9.766;2022-08-03T14:26:49;32.60;74.20
21261;DHT22;10788;47.930;9.766;2022-08-03T14:29:15;32.70;75.00
21261;DHT22;10788;47.930;9.766;2022-08-03T14:31:40;32.70;75.60
21261;DHT22;10788;47.930;9.766;2022-08-03T14:34:06;32.80;74.20
21261;DHT22;10788;47.930;9.766;2022-08-03T14:36:32;32.80;74.50
21261;DHT22;10788;47.930;9.766;2022-08-03T14:38:57;32.80;74.30
21261;DHT22;10788;47.930;9.766;2022-08-03T14:41:23;32.70;71.00
21261;DHT22;10788;47.930;9.766;2022-08-03T14:43:49;32.50;71.50
21261;DHT22;10788;47.930;9.766;2022-08-03T14:46:14;32.50;72.10
21261;DHT22;10788;47.930;9.766;2022-08-03T14:48:40;32.50;72.10
21261;DHT22;10788;47.930;9.766;2022-08-03T14:51:05;32.50;71.90
21261;DHT22;10788;47.930;9.766;2022-08-03T14:53:32;32.40;71.70
21261;DHT22;10788;47.930;9.766;2022-08-03T14:55:58;32.60;72.40
21261;DHT22;10788;47.930;9.766;2022-08-03T14:58:24;32.60;72.50
21261;DHT22;10788;47.930;9.766;2022-08-03T15:00:52;32.40;72.90
21261;DHT22;10788;47.930;9.766;2022-08-03T15:03:19;32.40;73.60
21261;DHT22;10788;47.930;9.766;2022-08-03T15:05:48;32.50;74.20
21261;DHT22;10788;47.930;9.766;2022-08-03T15:08:14;32.70;75.30
21261;DHT22;10788;47.930;9.766;2022-08-03T15:10:39;32.80;73.90
21261;DHT22;10788;47.930;9.766;2022-08-03T15:13:05;32.60;72.70
21261;DHT22;10788;47.930;9.766;2022-08-03T15:15:30;32.70;73.70
21261;DHT22;10788;47.930;9.766;2022-08-03T15:17:56;32.60;73.20
21261;DHT22;10788;47.930;9.766;2022-08-03T15:20:22;32.70;75.40
21261;DHT22;10788;47.930;9.766;2022-08-03T15:22:47;32.70;73.70
21261;DHT22;10788;47.930;9.766;2022-08-03T15:25:13;32.90;74.50
21261;DHT22;10788;47.930;9.766;2022-08-03T15:27:38;32.90;73.10
21261;DHT22;10788;47.930;9.766;2022-08-03T15:30:04;32.80;71.40
21261;DHT22;10788;47.930;9.766;2022-08-03T15:32:32;32.60;73.10
21261;DHT22;10788;47.930;9.766;2022-08-03T15:34:59;32.40;72.80
21261;DHT22;10788;47.930;9.766;2022-08-03T15:37:25;32.40;74.40
21261;DHT22;10788;47.930;9.766;2022-08-03T15:39:50;32.50;76.50
21261;DHT22;10788;47.930;9.766;2022-08-03T15:42:16;32.60;75.30
21261;DHT22;10788;47.930;9.766;2022-08-03T15:44:42;32.60;75.30
21261;DHT22;10788;47.930;9.766;2022-08-03T15:47:08;32.60;74.80
21261;DHT22;10788;47.930;9.766;2022-08-03T15:49:33;32.60;75.40
21261;DHT22;10788;47.930;9.766;2022-08-03T15:51:59;32.70;74.50
21261;DHT22;10788;47.930;9.766;2022-08-03T15:54:26;32.60;74.00
21261;DHT22;10788;47.930;9.766;2022-08-03T15:56:52;32.50;75.10
21261;DHT22;10788;47.930;9.766;2022-08-03T15:59:17;32.60;74.80
21261;DHT22;10788;47.930;9.766;2022-08-03T16:01:44;32.60;75.00
21261;DHT22;10788;47.930;9.766;2022-08-03T16:04:10;32.60;74.10
21261;DHT22;10788;47.930;9.766;2022-08-03T16:06:35;32.60;74.40
21261;DHT22;10788;47.930;9.766;2022-08-03T16:09:05;32.70;74.70
21261;DHT22;10788;47.930;9.766;2022-08-03T16:11:32;32.70;73.90
21261;DHT22;10788;47.930;9.766;2022-08-03T16:13:58;32.60;74.50
21261;DHT22;10788;47.930;9.766;2022-08-03T16:16:23;32.50;75.00
21261;DHT22;10788;47.930;9.766;2022-08-03T16:18:49;32.40;76.00
21261;DHT22;10788;47.930;9.766;2022-08-03T16:21:15;32.40;75.20
21261;DHT22;10788;47.930;9.766;2022-08-03T16:23:41;32.40;75.90